createdAt,value
2018-06-02T00:02:11.943Z,5.17
2018-06-02T00:04:39.468Z,5.03
2018-06-02T00:07:07.202Z,5.00
2018-06-02T00:09:34.744Z,5.30
2018-06-02T00:12:02.296Z,5.20
2018-06-02T00:14:29.864Z,5.50
2018-06-02T00:16:57.426Z,5.13
2018-06-02T00:19:24.967Z,4.97
2018-06-02T00:21:52.640Z,5.60
2018-06-02T00:24:20.188Z,5.80
2018-06-02T00:26:47.736Z,4.90
2018-06-02T00:29:15.632Z,5.63
2018-06-02T00:31:43.169Z,5.60
2018-06-02T00:34:10.708Z,5.87
2018-06-02T00:36:38.371Z,5.30
2018-06-02T00:39:05.938Z,4.90
2018-06-02T00:41:33.482Z,5.00
2018-06-02T00:44:01.047Z,5.43
2018-06-02T00:46:28.632Z,5.20
2018-06-02T00:48:56.180Z,5.83
2018-06-02T00:51:23.752Z,5.60
2018-06-02T00:53:51.291Z,5.10
2018-06-02T00:56:18.845Z,5.80
2018-06-02T00:58:46.584Z,5.57
2018-06-02T01:01:14.125Z,5.27
2018-06-02T01:03:41.666Z,5.57
2018-06-02T01:06:09.336Z,5.60
2018-06-02T01:08:36.990Z,5.50
2018-06-02T01:11:04.547Z,5.77
2018-06-02T01:13:32.243Z,5.90
2018-06-02T01:15:59.784Z,5.70
2018-06-02T01:18:27.325Z,6.03
2018-06-02T01:20:55.408Z,6.30
2018-06-02T01:23:22.953Z,6.17
2018-06-02T01:25:50.520Z,5.93
2018-06-02T01:28:18.104Z,6.83
2018-06-02T01:30:45.645Z,6.17
2018-06-02T01:33:13.184Z,6.10
2018-06-02T01:35:40.747Z,6.27
2018-06-02T01:38:08.288Z,5.70
2018-06-02T01:40:35.836Z,6.20
2018-06-02T01:43:03.780Z,6.00
2018-06-02T01:45:31.315Z,6.00
2018-06-02T01:47:58.861Z,6.67
2018-06-02T01:50:26.436Z,6.10
2018-06-02T01:52:54.008Z,5.80
2018-06-02T01:55:21.558Z,6.07
2018-06-02T01:57:49.131Z,5.60
2018-06-02T02:00:16.669Z,6.40
2018-06-02T02:02:44.209Z,6.13
2018-06-02T02:05:11.780Z,6.70
2018-06-02T02:07:39.342Z,6.50
2018-06-02T02:10:06.934Z,6.73
2018-06-02T02:12:34.560Z,7.20
2018-06-02T02:15:02.101Z,6.80
2018-06-02T02:17:29.644Z,7.83
2018-06-02T02:19:57.378Z,7.20
2018-06-02T02:22:24.935Z,7.90
2018-06-02T02:24:52.483Z,8.07
2018-06-02T02:27:20.209Z,7.93
2018-06-02T02:29:47.753Z,7.97
2018-06-02T02:32:15.311Z,7.40
2018-06-02T02:34:42.896Z,7.53
2018-06-02T02:37:10.449Z,7.27
2018-06-02T02:39:38.003Z,7.67
2018-06-02T02:42:05.716Z,7.53
2018-06-02T02:44:33.248Z,6.97
2018-06-02T02:47:00.806Z,7.43
2018-06-02T02:49:28.763Z,7.57
2018-06-02T02:51:56.338Z,7.90
2018-06-02T02:54:23.872Z,7.50
2018-06-02T02:56:51.601Z,7.30
2018-06-02T02:59:19.187Z,7.57
2018-06-02T03:01:46.731Z,7.40
2018-06-02T03:04:14.425Z,7.67
2018-06-02T03:06:41.979Z,7.67
2018-06-02T03:09:09.544Z,8.07
2018-06-02T03:11:37.142Z,7.17
2018-06-02T03:14:04.690Z,8.37
2018-06-02T03:16:32.235Z,7.43
2018-06-02T03:19:00.147Z,6.40
2018-06-02T03:21:27.681Z,6.17
2018-06-02T03:23:55.232Z,5.80
2018-06-02T03:26:22.812Z,5.73
2018-06-02T03:28:50.343Z,6.00
2018-06-02T03:31:17.894Z,5.47
2018-06-02T03:33:45.612Z,6.27
2018-06-02T03:36:13.148Z,5.77
2018-06-02T03:38:40.690Z,5.30
2018-06-02T03:41:08.256Z,5.37
2018-06-02T03:43:35.888Z,5.60
2018-06-02T03:46:03.430Z,5.80
2018-06-02T03:48:31.011Z,5.10
2018-06-02T03:50:58.565Z,5.70
2018-06-02T03:53:26.108Z,5.30
2018-06-02T03:55:54.031Z,5.57
2018-06-02T03:58:21.574Z,5.77
2018-06-02T04:00:49.130Z,5.60
2018-06-02T04:03:16.865Z,5.80
2018-06-02T04:05:44.452Z,5.30
2018-06-02T04:08:12.028Z,6.00
2018-06-02T04:10:39.709Z,5.43
2018-06-02T04:13:07.272Z,5.65
2018-06-02T04:15:34.833Z,5.68
2018-06-02T04:18:02.561Z,4.75
2018-06-02T04:20:30.120Z,5.35
2018-06-02T04:22:57.676Z,5.22
2018-06-02T04:25:25.355Z,4.80
2018-06-02T04:27:52.932Z,5.37
2018-06-02T04:30:20.476Z,4.95
2018-06-02T04:32:48.066Z,5.12
2018-06-02T04:35:15.631Z,4.90
2018-06-02T04:37:43.197Z,4.70
2018-06-02T04:40:11.061Z,6.25
2018-06-02T04:42:38.641Z,4.80
2018-06-02T04:45:06.197Z,5.43
2018-06-02T04:47:33.927Z,5.25
2018-06-02T04:50:01.474Z,6.50
2018-06-02T04:52:29.023Z,4.87
2018-06-02T04:54:56.920Z,5.10
2018-06-02T04:57:24.461Z,5.53
2018-06-02T04:59:52.008Z,5.22
2018-06-02T05:02:19.605Z,6.75
2018-06-02T05:04:47.168Z,6.47
2018-06-02T05:07:14.720Z,5.90
2018-06-02T05:09:42.329Z,5.20
2018-06-02T05:12:09.892Z,6.05
2018-06-02T05:14:37.436Z,5.60
2018-06-02T05:17:05.116Z,5.75
2018-06-02T05:19:32.660Z,6.93
2018-06-02T05:22:00.212Z,6.85
2018-06-02T05:24:27.799Z,5.95
2018-06-02T05:26:55.351Z,6.30
2018-06-02T05:29:22.888Z,6.28
2018-06-02T05:31:50.779Z,6.07
2018-06-02T05:34:18.325Z,6.15
2018-06-02T05:36:45.884Z,6.50
2018-06-02T05:39:13.475Z,6.17
2018-06-02T05:41:41.024Z,6.97
2018-06-02T05:44:08.566Z,7.03
2018-06-02T05:46:36.287Z,6.67
2018-06-02T05:49:03.849Z,8.50
2018-06-02T05:51:31.409Z,12.20
2018-06-02T05:53:59.144Z,5.63
2018-06-02T05:56:26.684Z,6.07
2018-06-02T05:58:54.237Z,5.37
2018-06-02T06:01:21.816Z,6.70
2018-06-02T06:03:49.368Z,5.67
2018-06-02T06:06:16.916Z,5.40
2018-06-02T06:08:44.595Z,5.23
2018-06-02T06:11:12.137Z,4.97
2018-06-02T06:13:39.701Z,4.73
2018-06-02T06:16:07.263Z,4.73
2018-06-02T06:18:34.813Z,4.40
2018-06-02T06:21:02.368Z,4.70
2018-06-02T06:23:30.260Z,4.60
2018-06-02T06:25:57.819Z,3.90
2018-06-02T06:28:25.367Z,5.50
2018-06-02T06:30:52.936Z,5.40
2018-06-02T06:33:20.497Z,4.00
2018-06-02T06:35:48.048Z,4.77
2018-06-02T06:38:15.716Z,4.53
2018-06-02T06:40:43.295Z,3.90
2018-06-02T06:43:10.860Z,4.70
2018-06-02T06:45:38.443Z,4.57
2018-06-02T06:48:05.976Z,4.23
2018-06-02T06:50:33.592Z,3.90
2018-06-02T06:53:01.235Z,4.03
2018-06-02T06:55:28.790Z,4.77
2018-06-02T06:57:56.344Z,4.23
2018-06-02T07:00:24.251Z,4.80
2018-06-02T07:02:51.812Z,3.97
2018-06-02T07:05:19.357Z,4.40
2018-06-02T07:07:47.077Z,4.40
2018-06-02T07:10:14.642Z,5.00
2018-06-02T07:12:42.188Z,5.23
2018-06-02T07:15:09.767Z,4.40
2018-06-02T07:17:37.335Z,4.23
2018-06-02T07:20:04.897Z,5.37
2018-06-02T07:22:32.953Z,4.43
2018-06-02T07:25:00.495Z,3.90
2018-06-02T07:27:28.037Z,4.43
2018-06-02T07:29:55.634Z,4.20
2018-06-02T07:32:23.180Z,4.77
2018-06-02T07:34:50.724Z,4.80
2018-06-02T07:37:18.300Z,4.67
2018-06-02T07:39:45.854Z,4.77
2018-06-02T07:42:13.414Z,4.37
2018-06-02T07:44:40.990Z,4.87
2018-06-02T07:47:09.559Z,4.70
2018-06-02T07:49:37.105Z,5.10
2018-06-02T07:52:04.680Z,4.60
2018-06-02T07:54:32.238Z,4.57
2018-06-02T07:56:59.795Z,4.57
2018-06-02T07:59:27.408Z,4.93
2018-06-02T08:01:54.949Z,5.17
2018-06-02T08:04:22.501Z,5.63
2018-06-02T08:06:50.112Z,5.23
2018-06-02T08:09:17.664Z,5.60
2018-06-02T08:11:45.215Z,5.00
2018-06-02T08:14:12.789Z,4.73
2018-06-02T08:16:40.348Z,5.13
2018-06-02T08:19:07.910Z,4.77
2018-06-02T08:21:35.646Z,5.00
2018-06-02T08:24:03.210Z,5.30
2018-06-02T08:26:30.803Z,5.10
2018-06-02T08:28:58.363Z,4.80
2018-06-02T08:31:25.925Z,4.50
2018-06-02T08:33:53.483Z,5.73
2018-06-02T08:36:21.166Z,4.50
2018-06-02T08:38:48.734Z,4.93
2018-06-02T08:41:16.293Z,4.43
2018-06-02T08:43:43.863Z,4.87
2018-06-02T08:46:11.429Z,6.10
2018-06-02T08:48:38.976Z,5.27
2018-06-02T08:51:06.723Z,4.80
2018-06-02T08:53:34.273Z,5.47
2018-06-02T08:56:01.835Z,5.53
2018-06-02T08:58:29.562Z,4.87
2018-06-02T09:00:57.116Z,4.50
2018-06-02T09:03:24.686Z,6.00
2018-06-02T09:05:52.378Z,5.13
2018-06-02T09:08:19.924Z,5.13
2018-06-02T09:10:47.471Z,4.70
2018-06-02T09:13:15.048Z,4.67
2018-06-02T09:15:42.614Z,5.43
2018-06-02T09:18:10.172Z,5.10
2018-06-02T09:20:37.897Z,4.73
2018-06-02T09:23:05.454Z,4.33
2018-06-02T09:25:33.004Z,4.40
2018-06-02T09:28:00.695Z,4.43
2018-06-02T09:30:28.259Z,4.93
2018-06-02T09:32:55.822Z,4.23
2018-06-02T09:35:23.409Z,4.37
2018-06-02T09:37:50.988Z,4.10
2018-06-02T09:40:18.542Z,4.20
2018-06-02T09:42:46.626Z,4.20
2018-06-02T09:45:14.170Z,4.60
2018-06-02T09:47:41.753Z,4.07
2018-06-02T09:50:09.366Z,4.37
2018-06-02T09:52:36.941Z,3.80
2018-06-02T09:55:04.522Z,4.43
2018-06-02T09:57:32.245Z,3.90
2018-06-02T09:59:59.804Z,11.80
2018-06-02T10:02:27.349Z,7.43
2018-06-02T10:04:54.932Z,5.47
2018-06-02T10:07:22.501Z,4.07
2018-06-02T10:09:50.061Z,4.40
2018-06-02T10:12:17.639Z,3.80
2018-06-02T10:14:45.209Z,3.63
2018-06-02T10:17:12.776Z,3.57
2018-06-02T10:19:40.525Z,3.17
2018-06-02T10:22:08.091Z,3.27
2018-06-02T10:24:35.631Z,3.20
2018-06-02T10:27:03.212Z,3.27
2018-06-02T10:29:30.778Z,3.77
2018-06-02T10:31:58.345Z,12.10
2018-06-02T10:34:25.951Z,3.83
2018-06-02T10:36:53.538Z,4.00
2018-06-02T10:39:21.131Z,3.87
2018-06-02T10:41:48.728Z,9.67
2018-06-02T10:44:16.338Z,4.03
2018-06-02T10:46:43.904Z,5.63
2018-06-02T10:49:11.502Z,3.97
2018-06-02T10:51:39.067Z,4.20
2018-06-02T10:54:06.641Z,4.40
2018-06-02T10:56:34.328Z,5.07
2018-06-02T10:59:01.883Z,4.23
2018-06-02T11:01:29.432Z,4.07
2018-06-02T11:03:57.037Z,4.00
2018-06-02T11:06:24.589Z,4.70
2018-06-02T11:08:52.132Z,4.03
2018-06-02T11:11:19.815Z,3.63
2018-06-02T11:13:47.369Z,4.40
2018-06-02T11:16:14.921Z,4.07
2018-06-02T11:18:42.515Z,4.13
2018-06-02T11:21:10.064Z,3.90
2018-06-02T11:23:37.623Z,4.57
2018-06-02T11:26:05.387Z,3.80
2018-06-02T11:28:33.637Z,4.30
2018-06-02T11:31:01.204Z,4.60
2018-06-02T11:33:28.822Z,4.20
2018-06-02T11:35:56.383Z,3.97
2018-06-02T11:38:23.950Z,4.30
2018-06-02T11:40:51.537Z,4.10
2018-06-02T11:43:19.109Z,4.13
2018-06-02T11:45:46.653Z,4.00
2018-06-02T11:48:14.397Z,4.10
2018-06-02T11:50:41.976Z,4.20
2018-06-02T11:53:09.529Z,4.00
2018-06-02T11:55:37.112Z,3.97
2018-06-02T11:58:04.677Z,4.33
2018-06-02T12:00:33.257Z,4.20
2018-06-02T12:03:00.986Z,4.50
2018-06-02T12:05:28.549Z,4.20
2018-06-02T12:07:56.148Z,4.87
2018-06-02T12:10:23.722Z,3.70
2018-06-02T12:12:51.273Z,4.23
2018-06-02T12:15:18.825Z,3.63
2018-06-02T12:17:46.495Z,3.90
2018-06-02T12:20:14.050Z,3.70
2018-06-02T12:22:41.603Z,4.00
2018-06-02T12:25:09.191Z,4.43
2018-06-02T12:27:36.752Z,4.80
2018-06-02T12:30:04.333Z,4.27
2018-06-02T12:32:32.107Z,4.03
2018-06-02T12:34:59.674Z,4.13
2018-06-02T12:37:27.237Z,3.70
2018-06-02T12:39:54.812Z,4.10
2018-06-02T12:42:22.380Z,4.17
2018-06-02T12:44:49.931Z,4.23
2018-06-02T12:47:17.522Z,4.00
2018-06-02T12:49:45.094Z,4.00
2018-06-02T12:52:12.667Z,4.90
2018-06-02T12:54:40.249Z,3.90
2018-06-02T12:57:07.819Z,4.10
2018-06-02T12:59:35.364Z,4.20
2018-06-02T13:02:03.116Z,4.00
2018-06-02T13:04:30.686Z,4.07
2018-06-02T13:06:58.269Z,3.70
2018-06-02T13:09:25.956Z,4.17
2018-06-02T13:11:53.571Z,4.03
2018-06-02T13:14:21.136Z,3.43
2018-06-02T13:16:48.717Z,3.70
2018-06-02T13:19:16.269Z,3.77
2018-06-02T13:21:43.821Z,3.30
2018-06-02T13:24:11.563Z,3.73
2018-06-02T13:26:39.114Z,3.80
2018-06-02T13:29:06.659Z,3.67
2018-06-02T13:31:34.234Z,3.50
2018-06-02T13:34:01.793Z,3.93
2018-06-02T13:36:29.349Z,4.20
2018-06-02T13:38:57.105Z,4.57
2018-06-02T13:41:24.738Z,4.10
2018-06-02T13:43:52.347Z,3.37
2018-06-02T13:46:20.095Z,6.70
2018-06-02T13:48:47.646Z,4.20
2018-06-02T13:51:15.208Z,4.50
2018-06-02T13:53:43.111Z,3.87
2018-06-02T13:56:10.659Z,4.07
2018-06-02T13:58:38.227Z,3.47
2018-06-02T14:01:05.818Z,3.27
2018-06-02T14:03:33.359Z,3.80
2018-06-02T14:06:01.503Z,4.10
2018-06-02T14:08:29.236Z,3.57
2018-06-02T14:10:56.793Z,4.47
2018-06-02T14:13:24.375Z,4.00
2018-06-02T14:15:51.963Z,4.93
2018-06-02T14:18:19.496Z,4.80
2018-06-02T14:20:47.061Z,3.93
2018-06-02T14:23:14.779Z,3.33
2018-06-02T14:25:42.409Z,3.40
2018-06-02T14:28:09.926Z,4.03
2018-06-02T14:30:37.523Z,3.67
2018-06-02T14:33:05.102Z,4.23
2018-06-02T14:35:32.638Z,4.53
2018-06-02T14:38:00.277Z,4.37
2018-06-02T14:40:27.818Z,4.43
2018-06-02T14:42:55.378Z,4.33
2018-06-02T14:45:22.938Z,5.10
2018-06-02T14:47:50.496Z,5.13
2018-06-02T14:50:18.049Z,4.87
2018-06-02T14:52:45.608Z,5.20
2018-06-02T14:55:13.250Z,4.43
2018-06-02T14:57:40.753Z,4.80
2018-06-02T15:00:08.304Z,4.57
2018-06-02T15:02:35.879Z,5.63
2018-06-02T15:05:03.471Z,4.40
2018-06-02T15:07:31.030Z,5.60
2018-06-02T15:09:58.609Z,5.47
2018-06-02T15:12:26.172Z,4.60
2018-06-02T15:14:53.728Z,5.50
2018-06-02T15:17:21.287Z,5.03
2018-06-02T15:19:48.864Z,5.23
2018-06-02T15:22:17.296Z,5.00
2018-06-02T15:24:44.881Z,5.40
2018-06-02T15:27:12.477Z,5.53
2018-06-02T15:29:40.020Z,4.63
2018-06-02T15:32:07.692Z,4.53
2018-06-02T15:34:35.259Z,4.90
2018-06-02T15:37:02.859Z,5.30
2018-06-02T15:39:30.433Z,5.60
2018-06-02T15:41:57.998Z,5.23
2018-06-02T15:44:25.562Z,4.23
2018-06-02T15:46:53.132Z,5.47
2018-06-02T15:49:20.704Z,5.80
2018-06-02T15:51:48.254Z,4.10
2018-06-02T15:54:15.847Z,6.83
2018-06-02T15:56:43.431Z,6.50
2018-06-02T15:59:11.123Z,6.67
2018-06-02T16:01:38.733Z,5.60
2018-06-02T16:04:06.359Z,5.43
2018-06-02T16:06:33.916Z,5.23
2018-06-02T16:09:01.506Z,5.50
2018-06-02T16:11:29.094Z,5.43
2018-06-02T16:13:56.654Z,5.90
2018-06-02T16:16:24.225Z,12.53
2018-06-02T16:18:51.780Z,5.40
2018-06-02T16:21:19.344Z,5.83
2018-06-02T16:23:46.905Z,5.50
2018-06-02T16:26:14.472Z,5.10
2018-06-02T16:28:42.066Z,4.93
2018-06-02T16:31:09.628Z,4.70
2018-06-02T16:33:37.192Z,4.77
2018-06-02T16:36:04.743Z,4.93
2018-06-02T16:38:32.304Z,4.77
2018-06-02T16:40:59.869Z,4.53
2018-06-02T16:43:27.450Z,4.50
2018-06-02T16:45:55.042Z,4.40
2018-06-02T16:48:22.637Z,5.50
2018-06-02T16:50:50.194Z,3.97
2018-06-02T16:53:17.769Z,4.10
2018-06-02T16:55:45.544Z,4.17
2018-06-02T16:58:13.087Z,4.80
2018-06-02T17:00:40.643Z,4.23
2018-06-02T17:03:08.211Z,4.87
2018-06-02T17:05:35.769Z,4.30
2018-06-02T17:08:03.328Z,4.03
2018-06-02T17:10:30.885Z,5.10
2018-06-02T17:12:58.476Z,5.10
2018-06-02T17:15:26.039Z,5.20
2018-06-02T17:17:53.617Z,5.60
2018-06-02T17:20:21.176Z,5.20
2018-06-02T17:22:48.717Z,6.03
2018-06-02T17:25:16.287Z,5.17
2018-06-02T17:27:43.844Z,5.03
2018-06-02T17:30:11.409Z,5.23
2018-06-02T17:32:39.002Z,6.33
2018-06-02T17:35:06.559Z,6.67
2018-06-02T17:37:34.220Z,6.23
2018-06-02T17:40:01.764Z,6.30
2018-06-02T17:42:29.319Z,5.37
2018-06-02T17:44:56.884Z,5.20
2018-06-02T17:47:24.435Z,5.77
2018-06-02T17:49:51.984Z,4.90
2018-06-02T17:52:19.594Z,5.17
2018-06-02T17:54:47.205Z,4.80
2018-06-02T17:57:14.751Z,5.37
2018-06-02T17:59:42.328Z,5.30
2018-06-02T18:02:09.896Z,5.43
2018-06-02T18:04:37.455Z,5.53
2018-06-02T18:07:05.052Z,5.47
2018-06-02T18:09:32.608Z,5.50
2018-06-02T18:12:00.297Z,5.70
2018-06-02T18:14:27.860Z,6.27
2018-06-02T18:16:55.497Z,5.63
2018-06-02T18:19:23.066Z,5.50
2018-06-02T18:21:50.642Z,5.13
2018-06-02T18:24:18.224Z,6.53
2018-06-02T18:26:45.797Z,9.83
2018-06-02T18:29:13.365Z,5.53
2018-06-02T18:31:40.960Z,5.60
2018-06-02T18:34:08.541Z,5.00
2018-06-02T18:36:36.103Z,5.00
2018-06-02T18:39:03.738Z,4.87
2018-06-02T18:41:31.301Z,4.87
2018-06-02T18:43:58.854Z,5.37
2018-06-02T18:46:26.416Z,5.27
2018-06-02T18:48:54.779Z,4.90
2018-06-02T18:51:22.331Z,5.40
2018-06-02T18:53:49.905Z,5.40
2018-06-02T18:56:17.509Z,5.40
2018-06-02T18:58:45.077Z,5.13
2018-06-02T19:01:12.625Z,5.73
2018-06-02T19:03:40.196Z,10.00
2018-06-02T19:06:07.767Z,9.80
2018-06-02T19:08:35.339Z,8.10
2018-06-02T19:11:02.894Z,9.33
2018-06-02T19:13:30.507Z,5.77
2018-06-02T19:15:58.053Z,6.97
2018-06-02T19:18:25.623Z,6.63
2018-06-02T19:20:53.177Z,7.17
2018-06-02T19:23:20.748Z,6.63
2018-06-02T19:25:48.312Z,8.10
2018-06-02T19:28:15.885Z,7.67
2018-06-02T19:30:43.470Z,8.07
2018-06-02T19:33:11.041Z,8.63
2018-06-02T19:35:38.632Z,8.53
2018-06-02T19:38:06.187Z,8.10
2018-06-02T19:40:33.745Z,8.60
2018-06-02T19:43:36.094Z,8.77
2018-06-02T19:46:04.997Z,8.87
2018-06-02T19:48:33.815Z,8.33
2018-06-02T19:51:02.623Z,9.60
2018-06-02T19:53:31.391Z,7.70
2018-06-02T19:56:00.182Z,15.97
2018-06-02T19:58:28.984Z,14.13
2018-06-02T20:00:57.768Z,9.13
2018-06-02T20:03:26.637Z,8.70
2018-06-02T20:05:55.557Z,8.83
2018-06-02T20:08:24.353Z,9.00
2018-06-02T20:10:53.108Z,8.13
2018-06-02T20:13:21.887Z,9.13
2018-06-02T20:15:50.657Z,8.03
2018-06-02T20:18:19.448Z,8.77
2018-06-02T20:20:48.222Z,8.40
2018-06-02T20:23:16.994Z,8.80
2018-06-02T20:25:45.824Z,8.23
2018-06-02T20:28:14.588Z,8.40
2018-06-02T20:30:43.359Z,8.23
2018-06-02T20:33:12.169Z,7.83
2018-06-02T20:35:40.965Z,7.70
2018-06-02T20:38:09.776Z,8.87
2018-06-02T20:40:38.554Z,7.43
2018-06-02T20:43:07.384Z,8.30
2018-06-02T20:45:36.163Z,7.83
2018-06-02T20:48:05.078Z,7.80
2018-06-02T20:50:33.845Z,8.47
2018-06-02T20:53:02.641Z,7.70
2018-06-02T20:55:31.442Z,7.80
2018-06-02T20:58:00.225Z,7.43
2018-06-02T21:00:29.000Z,8.87
2018-06-02T21:02:57.796Z,9.27
2018-06-02T21:05:26.766Z,8.60
2018-06-02T21:07:55.671Z,8.23
2018-06-02T21:10:24.584Z,8.07
2018-06-02T21:12:53.375Z,8.10
2018-06-02T21:15:22.134Z,7.97
2018-06-02T21:17:50.911Z,7.93
2018-06-02T21:20:19.701Z,8.00
2018-06-02T21:22:48.469Z,7.93
2018-06-02T21:25:17.246Z,7.90
2018-06-02T21:27:46.017Z,7.53
2018-06-02T21:30:14.933Z,7.43
2018-06-02T21:32:43.758Z,7.37
2018-06-02T21:35:12.534Z,7.53
2018-06-02T21:37:41.305Z,7.20
2018-06-02T21:40:10.087Z,7.30
2018-06-02T21:42:38.877Z,7.63
2018-06-02T21:45:07.642Z,7.97
2018-06-02T21:47:36.455Z,7.67
2018-06-02T21:50:05.288Z,7.73
2018-06-02T21:52:34.058Z,7.67
2018-06-02T21:55:02.864Z,8.07
2018-06-02T21:57:31.600Z,8.60
2018-06-02T22:00:00.446Z,7.97
2018-06-02T22:02:29.214Z,8.20
2018-06-02T22:04:58.087Z,8.37
2018-06-02T22:07:26.960Z,7.93
2018-06-02T22:09:55.735Z,8.47
2018-06-02T22:12:24.673Z,7.50
2018-06-02T22:14:53.616Z,7.00
2018-06-02T22:17:22.650Z,8.00
2018-06-02T22:19:51.413Z,7.13
2018-06-02T22:22:20.215Z,7.07
2018-06-02T22:24:48.987Z,7.20
2018-06-02T22:27:17.753Z,6.70
2018-06-02T22:29:46.520Z,6.93
2018-06-02T22:32:15.287Z,6.80
2018-06-02T22:34:44.096Z,7.10
2018-06-02T22:37:12.871Z,6.97
2018-06-02T22:39:41.743Z,7.80
2018-06-02T22:42:10.516Z,8.40
2018-06-02T22:44:39.276Z,8.17
2018-06-02T22:47:08.057Z,9.17
2018-06-02T22:49:36.830Z,7.83
2018-06-02T22:52:05.636Z,7.87
2018-06-02T22:54:34.693Z,7.27
2018-06-02T22:57:03.506Z,7.20
2018-06-02T22:59:32.434Z,7.80
2018-06-02T23:02:01.539Z,7.83
2018-06-02T23:04:30.449Z,8.13
2018-06-02T23:06:59.439Z,7.47
2018-06-02T23:09:28.212Z,8.13
2018-06-02T23:11:57.047Z,7.63
2018-06-02T23:14:25.809Z,8.03
2018-06-02T23:16:54.615Z,7.73
2018-06-02T23:19:23.410Z,8.00
2018-06-02T23:21:52.175Z,7.80
2018-06-02T23:24:21.051Z,8.07
2018-06-02T23:26:49.884Z,7.07
2018-06-02T23:29:18.651Z,7.50
2018-06-02T23:31:47.426Z,7.30
2018-06-02T23:34:16.192Z,7.10
2018-06-02T23:36:44.938Z,7.47
2018-06-02T23:39:13.705Z,7.43
2018-06-02T23:41:42.466Z,7.27
2018-06-02T23:44:11.211Z,6.93
2018-06-02T23:46:40.060Z,8.03
2018-06-02T23:49:08.872Z,7.83
2018-06-02T23:51:37.653Z,8.20
2018-06-02T23:54:06.451Z,7.77
2018-06-02T23:56:35.215Z,7.90
2018-06-02T23:59:03.980Z,8.87
